Time;durP1;ratioP1;P1;durP2;ratioP2;P2;SDS_P1;SDS_P2;PMS_P1;PMS_P2;Temp;Humidity;BMP_temperature;BMP_pressure;BME280_temperature;BME280_humidity;BME280_pressure;Samples;Min_cycle;Max_cycle;Signal;HPM_P1;HPM_P2
2022/11/14 00:00:43;;;;;;;14.65;9.55;;;23.40;53.90;;;;;;7715622;22;82521;-60
2022/11/14 00:04:02;;;;;;;15.32;10.48;;;23.40;54.00;;;;;;7715222;22;80143;-55
2022/11/14 00:07:21;;;;;;;15.02;9.85;;;23.40;53.90;;;;;;7712262;22;82951;-55
2022/11/14 00:10:39;;;;;;;14.23;10.10;;;23.40;53.80;;;;;;7711395;22;82672;-56
2022/11/14 00:13:58;;;;;;;15.93;9.52;;;23.40;53.80;;;;;;7713308;22;85073;-55
2022/11/14 00:17:18;;;;;;;13.82;9.80;;;23.40;53.80;;;;;;7718799;22;82716;-57
2022/11/14 00:20:37;;;;;;;13.82;9.82;;;23.40;53.70;;;;;;7718282;22;80248;-56
2022/11/14 00:23:56;;;;;;;13.82;9.40;;;23.40;53.50;;;;;;7716201;22;80253;-57
2022/11/14 00:27:15;;;;;;;12.77;9.15;;;23.40;53.80;;;;;;7718532;22;80524;-57
2022/11/14 00:30:34;;;;;;;12.52;8.30;;;23.40;53.70;;;;;;7719245;22;80372;-56
2022/11/14 00:33:53;;;;;;;14.43;9.35;;;23.40;53.60;;;;;;7716284;22;81240;-57
2022/11/14 00:37:12;;;;;;;14.98;10.10;;;23.40;53.80;;;;;;7716103;22;82064;-57
2022/11/14 00:40:30;;;;;;;12.60;8.80;;;23.40;53.80;;;;;;7711873;22;84112;-56
2022/11/14 00:43:49;;;;;;;11.98;8.43;;;23.30;53.50;;;;;;7714975;22;87250;-57
2022/11/14 00:47:08;;;;;;;13.20;8.80;;;23.30;53.60;;;;;;7715899;22;80255;-57
2022/11/14 00:50:27;;;;;;;11.35;8.32;;;23.40;53.50;;;;;;7716170;22;80877;-56
2022/11/14 00:53:46;;;;;;;12.70;9.55;;;23.40;53.50;;;;;;7715220;22;79988;-57
2022/11/14 00:57:05;;;;;;;11.63;8.93;;;23.30;53.20;;;;;;7716440;22;79976;-56
2022/11/14 01:00:24;;;;;;;11.25;8.45;;;23.30;53.30;;;;;;7716285;22;80135;-56
2022/11/14 01:03:43;;;;;;;12.43;9.35;;;23.40;53.40;;;;;;7716127;22;79996;-54
2022/11/14 01:07:02;;;;;;;11.18;8.68;;;23.30;53.00;;;;;;7716829;22;80006;-56
2022/11/14 01:10:21;;;;;;;12.52;9.20;;;23.30;53.10;;;;;;7714266;22;80385;-55
2022/11/14 01:13:40;;;;;;;11.32;8.40;;;23.40;53.10;;;;;;7717948;22;80452;-57
2022/11/14 01:16:59;;;;;;;10.68;8.07;;;23.40;53.10;;;;;;7711336;22;84505;-57
2022/11/14 01:20:18;;;;;;;11.68;8.35;;;23.40;53.00;;;;;;7715177;22;80076;-58
2022/11/14 01:23:37;;;;;;;13.20;9.38;;;23.30;53.00;;;;;;7712215;22;80069;-56
2022/11/14 01:26:56;;;;;;;11.90;8.50;;;23.30;53.00;;;;;;7713083;22;80477;-56
2022/11/14 01:30:15;;;;;;;13.00;8.77;;;23.30;53.00;;;;;;7716682;22;81330;-57
2022/11/14 01:33:34;;;;;;;12.18;8.55;;;23.30;52.70;;;;;;7714574;22;81824;-57
2022/11/14 01:36:53;;;;;;;11.70;8.32;;;23.30;52.70;;;;;;7714956;22;79960;-57
2022/11/14 01:40:12;;;;;;;12.57;8.93;;;23.30;52.60;;;;;;7712569;22;79935;-57
2022/11/14 01:43:31;;;;;;;11.23;8.55;;;23.30;52.60;;;;;;7716766;22;80282;-57
2022/11/14 01:46:50;;;;;;;10.80;7.97;;;23.30;52.50;;;;;;7715394;22;84741;-58
2022/11/14 01:50:09;;;;;;;10.32;7.85;;;23.30;52.40;;;;;;7716837;22;80445;-56
2022/11/14 01:53:28;;;;;;;12.02;8.70;;;23.30;52.50;;;;;;7715163;22;79989;-57
2022/11/14 01:56:47;;;;;;;11.52;8.25;;;23.20;52.60;;;;;;7716507;22;80346;-57
2022/11/14 02:00:06;;;;;;;11.68;8.30;;;23.20;52.30;;;;;;7715045;22;80171;-57
2022/11/14 02:03:25;;;;;;;12.77;9.07;;;23.20;52.00;;;;;;7716832;22;82328;-57
2022/11/14 02:06:44;;;;;;;11.05;8.10;;;23.20;52.10;;;;;;7713618;22;81472;-56
2022/11/14 02:10:03;;;;;;;10.52;7.72;;;23.20;52.00;;;;;;7715268;22;80395;-57
2022/11/14 02:13:22;;;;;;;10.70;7.45;;;23.20;52.10;;;;;;7713477;22;80241;-56
2022/11/14 02:16:41;;;;;;;10.15;8.10;;;23.20;52.30;;;;;;7717263;22;81337;-56
2022/11/14 02:20:00;;;;;;;9.02;7.32;;;23.20;52.20;;;;;;7712970;22;83604;-56
2022/11/14 02:23:20;;;;;;;10.80;7.15;;;23.20;52.20;;;;;;7715140;22;81874;-56
2022/11/14 02:26:39;;;;;;;10.55;7.95;;;23.20;52.20;;;;;;7714524;22;81536;-57
2022/11/14 02:29:58;;;;;;;10.40;7.18;;;23.20;52.20;;;;;;7714599;22;81715;-56
2022/11/14 02:33:17;;;;;;;9.88;7.13;;;23.20;52.30;;;;;;7712589;22;80225;-57
2022/11/14 02:36:36;;;;;;;8.93;7.00;;;23.20;52.20;;;;;;7716341;22;81830;-56
2022/11/14 02:39:55;;;;;;;8.80;6.85;;;23.20;52.00;;;;;;7718460;22;80493;-56
2022/11/14 02:43:14;;;;;;;11.43;7.53;;;23.20;52.10;;;;;;7718914;22;80137;-56
2022/11/14 02:46:32;;;;;;;9.80;6.97;;;23.20;51.90;;;;;;7716568;22;80306;-56
2022/11/14 02:49:51;;;;;;;10.85;7.45;;;23.20;51.90;;;;;;7712910;22;84563;-56
2022/11/14 02:53:10;;;;;;;10.10;7.00;;;23.20;51.80;;;;;;7716165;22;81999;-56
2022/11/14 02:56:29;;;;;;;9.80;7.30;;;23.20;51.90;;;;;;7717001;22;81212;-55
2022/11/14 02:59:48;;;;;;;10.30;6.63;;;23.20;51.70;;;;;;7715673;22;80141;-55
2022/11/14 03:03:07;;;;;;;9.38;7.28;;;23.20;51.60;;;;;;7715663;22;81729;-55
2022/11/14 03:06:26;;;;;;;9.65;7.43;;;23.20;51.70;;;;;;7716289;22;81917;-54
2022/11/14 03:09:45;;;;;;;9.63;6.55;;;23.20;51.60;;;;;;7715964;22;80302;-56
2022/11/14 03:13:04;;;;;;;9.98;7.15;;;23.20;51.50;;;;;;7716594;22;80273;-56
2022/11/14 03:16:23;;;;;;;9.77;7.15;;;23.20;51.50;;;;;;7715352;22;79891;-55
2022/11/14 03:19:42;;;;;;;11.32;7.47;;;23.20;51.50;;;;;;7717028;22;80907;-54
2022/11/14 03:23:01;;;;;;;8.43;6.43;;;23.20;51.50;;;;;;7714664;22;84457;-55
2022/11/14 03:26:20;;;;;;;10.80;6.75;;;23.10;51.40;;;;;;7712927;22;80186;-55
2022/11/14 03:29:39;;;;;;;10.63;7.38;;;23.20;51.40;;;;;;7718622;22;80236;-54
2022/11/14 03:32:58;;;;;;;9.27;7.07;;;23.10;51.20;;;;;;7717170;22;80177;-55
2022/11/14 03:36:17;;;;;;;8.85;7.22;;;23.10;51.30;;;;;;7716437;22;80245;-55
2022/11/14 03:39:36;;;;;;;8.70;6.13;;;23.10;51.40;;;;;;7718853;22;80395;-56
2022/11/14 03:42:55;;;;;;;9.23;6.28;;;23.10;51.40;;;;;;7714912;22;80253;-60
2022/11/14 03:46:14;;;;;;;8.68;6.32;;;23.10;51.20;;;;;;7715669;22;80880;-60
2022/11/14 03:49:33;;;;;;;7.70;6.07;;;23.10;51.10;;;;;;7717037;22;80524;-60
2022/11/14 03:52:52;;;;;;;9.30;6.40;;;23.10;51.30;;;;;;7715882;22;84618;-60
2022/11/14 03:56:12;;;;;;;7.75;5.88;;;23.10;51.40;;;;;;7715047;22;80133;-61
2022/11/14 03:59:31;;;;;;;8.23;6.30;;;23.10;51.50;;;;;;7717323;22;80390;-60
2022/11/14 04:02:50;;;;;;;7.32;5.68;;;23.10;51.10;;;;;;7716055;22;80240;-55
2022/11/14 04:06:09;;;;;;;8.07;6.22;;;23.10;51.00;;;;;;7715484;22;81993;-55
2022/11/14 04:09:28;;;;;;;8.07;5.50;;;23.10;51.20;;;;;;7717531;22;81598;-56
2022/11/14 04:12:47;;;;;;;9.15;6.65;;;23.10;50.90;;;;;;7716421;22;81610;-55
2022/11/14 04:16:07;;;;;;;9.63;6.43;;;23.20;50.70;;;;;;7715712;22;80197;-56
2022/11/14 04:19:26;;;;;;;8.07;5.80;;;23.20;50.80;;;;;;7715980;22;80419;-55
2022/11/14 04:22:45;;;;;;;6.75;5.43;;;23.30;50.90;;;;;;7715301;22;84509;-56
2022/11/14 04:26:04;;;;;;;9.02;5.82;;;23.30;50.80;;;;;;7715847;22;80004;-56
2022/11/14 04:29:23;;;;;;;6.65;5.50;;;23.40;50.80;;;;;;7718190;22;80347;-55
2022/11/14 04:32:42;;;;;;;8.75;5.45;;;23.40;50.80;;;;;;7718972;22;80252;-56
2022/11/14 04:36:01;;;;;;;6.95;5.53;;;23.50;50.90;;;;;;7717559;22;81086;-56
2022/11/14 04:39:20;;;;;;;7.65;5.55;;;23.50;50.70;;;;;;7716503;22;80419;-56
2022/11/14 04:42:39;;;;;;;6.90;5.43;;;23.60;50.60;;;;;;7716391;22;80716;-56
2022/11/14 04:45:58;;;;;;;7.75;5.72;;;23.60;50.60;;;;;;7715885;22;80219;-56
2022/11/14 04:49:17;;;;;;;6.38;5.43;;;23.60;50.50;;;;;;7711812;22;81667;-56
2022/11/14 04:52:36;;;;;;;8.07;6.07;;;23.60;50.20;;;;;;7713755;22;81043;-60
2022/11/14 04:55:55;;;;;;;8.40;5.95;;;23.60;50.30;;;;;;7711696;22;83609;-60
2022/11/14 04:59:14;;;;;;;6.97;5.18;;;23.60;50.10;;;;;;7717057;22;80421;-60
2022/11/14 05:02:34;;;;;;;7.20;5.28;;;23.60;50.40;;;;;;7714953;22;80464;-60
2022/11/14 05:05:53;;;;;;;6.45;5.03;;;23.60;50.60;;;;;;7714118;22;81371;-61
2022/11/14 05:09:12;;;;;;;6.32;4.95;;;23.60;50.70;;;;;;7716398;22;82046;-60
2022/11/14 05:12:22;;;;;;;7.90;5.30;;;23.60;50.80;;;;;;7712165;22;81700;-60
2022/11/14 05:15:41;;;;;;;6.57;5.05;;;23.60;50.80;;;;;;7715162;22;80752;-59
2022/11/14 05:19:00;;;;;;;8.20;4.70;;;23.70;50.90;;;;;;7713055;22;80073;-61
2022/11/14 05:22:19;;;;;;;5.60;4.25;;;23.60;51.10;;;;;;7710825;22;80025;-60
2022/11/14 05:25:38;;;;;;;6.22;4.75;;;23.70;51.20;;;;;;7716008;22;80030;-60
2022/11/14 05:28:57;;;;;;;7.05;4.45;;;23.60;51.10;;;;;;7714224;22;84917;-60
2022/11/14 05:32:16;;;;;;;6.20;4.32;;;23.70;51.00;;;;;;7716094;22;79951;-57
2022/11/14 05:35:35;;;;;;;8.27;4.82;;;23.70;50.90;;;;;;7660770;22;80599;-60
2022/11/14 05:38:54;;;;;;;7.03;4.53;;;23.70;50.90;;;;;;7704009;22;80609;-59
2022/11/14 05:42:13;;;;;;;5.07;4.13;;;23.70;50.80;;;;;;7701226;22;80249;-59
2022/11/14 05:45:32;;;;;;;6.10;4.80;;;23.70;50.90;;;;;;7703209;22;80415;-60
2022/11/14 05:48:51;;;;;;;6.60;5.03;;;23.80;50.80;;;;;;7704325;22;81486;-59
2022/11/14 05:52:10;;;;;;;7.47;4.97;;;23.80;50.60;;;;;;7711553;22;80215;-58
2022/11/14 05:55:29;;;;;;;5.80;4.63;;;23.80;50.50;;;;;;7712653;22;80804;-59
2022/11/14 05:58:48;;;;;;;10.63;5.03;;;23.80;50.90;;;;;;7712332;22;81695;-58
2022/11/14 06:02:07;;;;;;;7.97;5.35;;;23.80;50.80;;;;;;7711858;22;84486;-65
2022/11/14 06:05:26;;;;;;;7.40;5.43;;;23.80;50.80;;;;;;7711372;22;80512;-62
2022/11/14 06:08:45;;;;;;;7.28;5.10;;;23.80;50.50;;;;;;7709866;22;80826;-65
2022/11/14 06:12:06;;;;;;;7.10;5.10;;;23.80;50.10;;;;;;7709015;22;81970;-64
2022/11/14 06:15:25;;;;;;;8.88;6.45;;;23.90;50.00;;;;;;7705108;22;80502;-62
2022/11/14 06:18:44;;;;;;;8.82;6.28;;;23.80;50.10;;;;;;7700290;22;86474;-68
2022/11/14 06:22:03;;;;;;;11.82;6.60;;;23.80;50.20;;;;;;7715413;22;80960;-67
2022/11/14 06:25:22;;;;;;;9.82;6.45;;;23.80;50.00;;;;;;7713509;22;80435;-62
2022/11/14 06:28:41;;;;;;;12.15;6.95;;;23.70;49.70;;;;;;7707374;22;80522;-59
2022/11/14 06:32:00;;;;;;;9.48;6.80;;;23.80;50.10;;;;;;7710205;22;84538;-59
2022/11/14 06:35:19;;;;;;;9.88;6.72;;;23.70;49.40;;;;;;7710122;22;80361;-67
2022/11/14 06:38:38;;;;;;;11.57;6.55;;;23.70;49.70;;;;;;7708134;22;80854;-69
2022/11/14 06:41:57;;;;;;;12.75;6.47;;;23.70;49.50;;;;;;7707743;22;81358;-67
2022/11/14 06:45:16;;;;;;;10.55;6.25;;;23.70;49.60;;;;;;7706706;22;82378;-67
2022/11/14 06:48:35;;;;;;;11.15;7.35;;;23.70;49.70;;;;;;7712028;22;80446;-66
2022/11/14 06:51:54;;;;;;;9.32;6.07;;;23.70;49.40;;;;;;7710319;22;81085;-61
2022/11/14 06:55:13;;;;;;;9.40;6.93;;;23.60;49.60;;;;;;7707430;22;80481;-61
2022/11/14 06:58:32;;;;;;;8.00;5.97;;;23.60;49.40;;;;;;7593874;22;82581;-62
2022/11/14 07:01:51;;;;;;;8.90;6.05;;;23.60;49.40;;;;;;7502934;22;84519;-61
2022/11/14 07:05:10;;;;;;;9.23;6.22;;;23.60;49.60;;;;;;7697847;22;80509;-59
2022/11/14 07:08:29;;;;;;;9.93;5.75;;;23.60;49.60;;;;;;7706432;22;87267;-60
2022/11/14 07:11:48;;;;;;;9.27;5.95;;;23.60;49.40;;;;;;7705033;22;80647;-60
2022/11/14 07:15:07;;;;;;;11.77;6.55;;;23.60;49.60;;;;;;7710721;22;80834;-60
2022/11/14 07:18:26;;;;;;;7.38;5.88;;;23.60;49.60;;;;;;7710155;22;81396;-60
2022/11/14 07:21:45;;;;;;;9.45;5.55;;;23.60;49.50;;;;;;7700015;22;81080;-61
2022/11/14 07:25:04;;;;;;;9.63;5.57;;;23.60;49.50;;;;;;7699617;22;81077;-59
2022/11/14 07:28:24;;;;;;;12.68;5.90;;;23.60;49.50;;;;;;7710976;22;79985;-58
2022/11/14 07:31:43;;;;;;;9.40;5.95;;;23.60;49.40;;;;;;7708506;22;80367;-58
2022/11/14 07:35:01;;;;;;;8.85;6.65;;;23.60;49.20;;;;;;7708052;22;84532;-58
2022/11/14 07:38:21;;;;;;;7.90;5.85;;;23.50;49.10;;;;;;7703590;22;80457;-58
2022/11/14 07:41:40;;;;;;;7.82;5.85;;;23.50;49.20;;;;;;7710840;22;80404;-61
2022/11/14 07:44:59;;;;;;;9.77;6.30;;;23.50;49.10;;;;;;7712710;22;80983;-61
2022/11/14 07:48:18;;;;;;;11.77;6.47;;;23.50;49.00;;;;;;7711708;22;79891;-61
2022/11/14 07:51:37;;;;;;;8.13;6.07;;;23.50;49.00;;;;;;7709357;22;80358;-61
2022/11/14 07:54:56;;;;;;;7.97;6.20;;;23.50;48.90;;;;;;7711171;22;80771;-61
2022/11/14 07:58:15;;;;;;;6.90;5.82;;;23.50;48.80;;;;;;7711160;22;81067;-60
2022/11/14 08:01:34;;;;;;;7.80;5.85;;;23.50;48.90;;;;;;7687424;22;81778;-59
2022/11/14 08:04:53;;;;;;;8.02;5.90;;;23.50;49.20;;;;;;7701532;22;87108;-60
2022/11/14 08:08:12;;;;;;;11.98;6.30;;;23.50;49.10;;;;;;7713954;22;80430;-61
2022/11/14 08:11:46;;;;;;;7.57;6.05;;;23.50;49.00;;;;;;7713051;22;80418;-63
2022/11/14 08:15:06;;;;;;;7.72;6.03;;;23.50;49.00;;;;;;7715002;22;81051;-60
2022/11/14 08:18:25;;;;;;;7.68;5.40;;;23.50;49.30;;;;;;7709447;22;81434;-59
2022/11/14 08:21:44;;;;;;;7.72;6.00;;;23.50;49.10;;;;;;7711613;22;81044;-59
2022/11/14 08:25:02;;;;;;;11.60;6.28;;;23.50;49.00;;;;;;7714700;22;81221;-59
2022/11/14 08:28:21;;;;;;;7.80;5.78;;;23.50;48.90;;;;;;7715475;22;80157;-59
2022/11/14 08:31:40;;;;;;;8.02;6.03;;;23.50;48.90;;;;;;7707577;22;81082;-58
2022/11/14 08:34:59;;;;;;;10.65;6.13;;;23.40;48.70;;;;;;7701955;22;84558;-58
2022/11/14 08:38:18;;;;;;;6.78;5.43;;;23.40;48.80;;;;;;7690004;22;81079;-57
2022/11/14 08:41:37;;;;;;;7.70;5.63;;;23.40;48.60;;;;;;7709638;22;80615;-55
2022/11/14 08:44:57;;;;;;;8.93;6.32;;;23.50;48.70;;;;;;7713981;22;80728;-56
2022/11/14 08:48:16;;;;;;;9.15;6.43;;;23.50;48.60;;;;;;7705437;22;81715;-55
2022/11/14 08:51:35;;;;;;;7.93;5.57;;;23.50;48.70;;;;;;7718424;22;80697;-54
2022/11/14 08:54:55;;;;;;;7.20;5.55;;;23.50;48.70;;;;;;7716375;22;80913;-54
2022/11/14 08:58:14;;;;;;;9.75;6.07;;;23.50;48.70;;;;;;7718180;22;80245;-57
2022/11/14 09:01:33;;;;;;;9.55;5.72;;;23.50;48.50;;;;;;7714088;22;80407;-55
2022/11/14 09:04:52;;;;;;;7.72;5.78;;;23.50;48.60;;;;;;7692130;22;84656;-54
2022/11/14 09:08:10;;;;;;;7.50;5.80;;;23.50;48.50;;;;;;7711016;22;80501;-56
2022/11/14 09:11:29;;;;;;;9.15;6.10;;;23.50;48.40;;;;;;7707321;22;80453;-54
2022/11/14 09:14:48;;;;;;;12.23;6.28;;;23.50;48.30;;;;;;7706065;22;80670;-61
2022/11/14 09:18:07;;;;;;;8.05;6.18;;;23.50;48.30;;;;;;7700598;22;81254;-58
2022/11/14 09:21:26;;;;;;;7.63;6.32;;;23.50;48.30;;;;;;7709131;22;81032;-58
2022/11/14 09:24:46;;;;;;;7.45;6.60;;;23.50;48.30;;;;;;7705274;22;81139;-58
2022/11/14 09:28:05;;;;;;;8.40;6.00;;;23.50;48.20;;;;;;7701805;22;80426;-57
2022/11/14 09:31:24;;;;;;;7.80;5.93;;;23.50;48.50;;;;;;7693255;22;81487;-57
2022/11/14 09:34:44;;;;;;;10.98;6.60;;;23.50;48.60;;;;;;7695479;22;80371;-54
2022/11/14 09:38:03;;;;;;;8.13;6.72;;;23.50;48.70;;;;;;7710685;22;84542;-56
2022/11/14 09:41:25;;;;;;;8.05;6.57;;;23.50;48.50;;;;;;7714969;22;80604;-57
2022/11/14 09:44:44;;;;;;;8.80;6.38;;;23.40;48.40;;;;;;7714709;22;80198;-53
2022/11/14 09:48:04;;;;;;;9.38;6.60;;;23.50;48.60;;;;;;7713616;22;81155;-55
2022/11/14 09:51:22;;;;;;;9.35;6.85;;;23.50;48.30;;;;;;7716851;22;80419;-60
2022/11/14 09:54:41;;;;;;;9.10;6.70;;;23.40;48.20;;;;;;7714494;22;80791;-60
2022/11/14 09:58:01;;;;;;;8.95;7.07;;;23.40;48.20;;;;;;7714616;22;82130;-59
2022/11/14 10:01:19;;;;;;;8.80;6.55;;;23.40;48.20;;;;;;7708439;22;81497;-58
2022/11/14 10:04:39;;;;;;;11.18;6.15;;;23.40;48.40;;;;;;7711024;22;82181;-60
2022/11/14 10:07:57;;;;;;;12.00;6.93;;;23.50;48.60;;;;;;7711957;22;84448;-59
2022/11/14 10:11:17;;;;;;;39.53;13.68;;;23.40;48.60;;;;;;7713765;22;82030;-58
2022/11/14 10:14:36;;;;;;;46.63;18.60;;;23.40;49.90;;;;;;7708893;22;84319;-59
2022/11/14 10:17:55;;;;;;;83.38;38.08;;;23.50;49.90;;;;;;7709355;22;84878;-59
2022/11/14 10:21:14;;;;;;;96.70;43.65;;;23.50;50.80;;;;;;7706920;22;83248;-58
2022/11/14 10:24:33;;;;;;;155.75;73.07;;;23.50;51.60;;;;;;7705588;22;83484;-59
2022/11/14 10:27:52;;;;;;;134.00;73.63;;;23.50;51.90;;;;;;7707691;22;82925;-59
2022/11/14 10:31:10;;;;;;;163.30;85.20;;;23.50;52.40;;;;;;7700308;22;82945;-59
2022/11/14 10:34:29;;;;;;;164.90;97.63;;;23.50;52.50;;;;;;7703848;22;83450;-59
2022/11/14 10:37:48;;;;;;;169.52;95.53;;;23.50;52.70;;;;;;7711267;22;83231;-60
2022/11/14 10:41:07;;;;;;;150.35;92.88;;;23.40;52.10;;;;;;7708518;22;87270;-59
2022/11/14 10:44:27;;;;;;;171.32;103.70;;;23.40;51.80;;;;;;7709615;22;83022;-60
2022/11/14 10:47:46;;;;;;;168.75;102.55;;;23.40;51.10;;;;;;7698410;22;85384;-57
2022/11/14 10:51:05;;;;;;;124.90;76.40;;;23.30;50.50;;;;;;7699182;22;85601;-57
2022/11/14 10:54:24;;;;;;;99.97;61.15;;;23.20;50.30;;;;;;7698853;22;85465;-57
2022/11/14 10:57:43;;;;;;;55.60;34.35;;;23.20;49.40;;;;;;7702593;22;83894;-57
2022/11/14 11:01:01;;;;;;;67.25;42.28;;;23.10;48.70;;;;;;7705435;22;84796;-57
2022/11/14 11:04:21;;;;;;;59.53;33.83;;;23.10;48.40;;;;;;7697485;22;84245;-61
2022/11/14 11:11:29;;;;;;;47.40;29.00;;;23.10;47.40;;;;;;7711130;22;87187;-70
2022/11/14 11:14:49;;;;;;;36.08;22.98;;;23.20;47.10;;;;;;7708773;22;83011;-66
2022/11/14 11:18:08;;;;;;;34.65;20.60;;;23.20;46.70;;;;;;7711124;22;82951;-71
2022/11/14 11:21:27;;;;;;;33.25;18.52;;;23.20;46.60;;;;;;7708831;22;83063;-61
2022/11/14 11:24:46;;;;;;;23.83;15.65;;;23.30;46.30;;;;;;7706032;22;83562;-61
2022/11/14 11:28:06;;;;;;;22.80;13.65;;;23.40;46.30;;;;;;7710773;22;83089;-61
2022/11/14 11:31:25;;;;;;;24.00;13.93;;;23.40;46.30;;;;;;7709358;22;83108;-60
2022/11/14 11:34:44;;;;;;;21.38;12.77;;;23.40;46.20;;;;;;7710752;22;83904;-61
2022/11/14 11:38:04;;;;;;;18.38;11.57;;;23.50;46.20;;;;;;7706367;22;87200;-61
2022/11/14 11:41:23;;;;;;;15.95;10.45;;;23.50;46.20;;;;;;7707856;22;83389;-61
2022/11/14 11:44:42;;;;;;;14.43;10.10;;;23.50;46.00;;;;;;7706658;22;84428;-61
2022/11/14 11:48:01;;;;;;;16.30;9.98;;;23.50;46.00;;;;;;7707403;22;82942;-61
2022/11/14 11:51:20;;;;;;;12.43;9.48;;;23.50;46.00;;;;;;7680030;22;83758;-61
2022/11/14 11:54:39;;;;;;;13.23;9.07;;;23.50;45.90;;;;;;7706891;22;83092;-61
2022/11/14 11:57:58;;;;;;;14.80;9.45;;;23.60;45.90;;;;;;7700096;22;81126;-61
2022/11/14 12:01:18;;;;;;;13.23;9.02;;;23.60;45.90;;;;;;7715689;22;81005;-61
2022/11/14 12:04:37;;;;;;;14.30;8.88;;;23.60;45.90;;;;;;7715230;22;80388;-61
2022/11/14 12:07:56;;;;;;;9.98;8.07;;;23.60;45.90;;;;;;7715182;22;84675;-62
2022/11/14 12:11:16;;;;;;;12.82;8.07;;;23.60;45.80;;;;;;7710987;22;80500;-61
2022/11/14 12:14:35;;;;;;;12.18;8.55;;;23.60;45.80;;;;;;7712702;22;80099;-61
2022/11/14 12:17:54;;;;;;;11.65;7.68;;;23.60;45.80;;;;;;7713640;22;82289;-58
2022/11/14 12:21:14;;;;;;;10.43;7.32;;;23.70;45.70;;;;;;7715701;22;79942;-58
2022/11/14 12:24:33;;;;;;;12.15;8.15;;;23.60;45.70;;;;;;7713698;22;81203;-57
2022/11/14 12:27:52;;;;;;;11.88;8.65;;;23.70;45.70;;;;;;7713632;22;81728;-58
2022/11/14 12:31:11;;;;;;;11.60;7.88;;;23.60;45.60;;;;;;7715099;22;80926;-57
2022/11/14 12:34:30;;;;;;;10.52;7.25;;;23.70;45.60;;;;;;7714605;22;80744;-58
2022/11/14 12:37:49;;;;;;;10.02;8.00;;;23.60;45.60;;;;;;7714596;22;80697;-59
2022/11/14 12:41:09;;;;;;;9.98;7.80;;;23.70;45.60;;;;;;7713808;22;83423;-58
2022/11/14 12:44:28;;;;;;;10.40;7.53;;;23.60;45.50;;;;;;7715067;22;80399;-58
2022/11/14 12:47:47;;;;;;;10.27;7.80;;;23.60;45.50;;;;;;7714914;22;80406;-58
2022/11/14 12:51:06;;;;;;;11.85;8.32;;;23.60;45.50;;;;;;7713627;22;80185;-58
2022/11/14 12:54:25;;;;;;;10.30;7.68;;;23.70;45.50;;;;;;7714636;22;80117;-58
2022/11/14 12:57:50;;;;;;;10.40;8.50;;;23.60;45.40;;;;;;7714884;22;80255;-62
2022/11/14 13:01:09;;;;;;;11.10;8.13;;;23.60;45.40;;;;;;7717395;22;80412;-58
2022/11/14 13:04:28;;;;;;;9.63;7.68;;;23.60;45.50;;;;;;7711782;22;81769;-58
2022/11/14 13:07:47;;;;;;;10.65;8.43;;;23.60;45.50;;;;;;7706176;22;80906;-58
2022/11/14 13:11:06;;;;;;;9.52;7.20;;;23.50;45.70;;;;;;7711265;22;84683;-58
2022/11/14 13:21:47;;;;;;;10.10;7.80;;;23.50;45.50;;;;;;7718029;22;81025;-62
2022/11/14 13:25:06;;;;;;;10.07;7.72;;;23.50;45.50;;;;;;7714368;22;80533;-61
2022/11/14 13:28:25;;;;;;;9.85;7.40;;;23.50;45.70;;;;;;7709645;22;80982;-63
2022/11/14 13:31:44;;;;;;;10.00;8.35;;;23.50;45.80;;;;;;7711979;22;80854;-55
2022/11/14 13:35:03;;;;;;;13.13;8.68;;;23.50;46.10;;;;;;7709861;22;84596;-56
2022/11/14 13:38:23;;;;;;;13.82;8.35;;;23.50;46.40;;;;;;7713744;22;80028;-57
2022/11/14 13:41:42;;;;;;;15.02;8.35;;;23.50;46.60;;;;;;7713316;22;80059;-56
2022/11/14 13:45:01;;;;;;;9.43;7.72;;;23.50;46.60;;;;;;7713591;22;80886;-56
2022/11/14 13:48:22;;;;;;;10.85;8.32;;;23.50;46.60;;;;;;7714422;22;80629;-57
2022/11/14 13:51:41;;;;;;;26.42;9.63;;;23.50;46.60;;;;;;7716595;22;80862;-57
2022/11/14 13:55:00;;;;;;;12.75;8.85;;;23.50;46.60;;;;;;7714763;22;80429;-55
2022/11/14 13:58:19;;;;;;;10.45;8.38;;;23.40;46.60;;;;;;7714153;22;80588;-55
2022/11/14 14:01:38;;;;;;;16.05;8.77;;;23.40;46.70;;;;;;7715785;22;81089;-59
2022/11/14 14:04:57;;;;;;;13.43;8.68;;;23.50;46.70;;;;;;7713023;22;84286;-58
2022/11/14 14:08:17;;;;;;;37.85;9.23;;;23.40;46.70;;;;;;7708795;22;82146;-61
2022/11/14 14:11:36;;;;;;;9.88;8.23;;;23.50;47.10;;;;;;7710454;22;80434;-59
2022/11/14 14:14:55;;;;;;;12.88;8.85;;;23.50;47.00;;;;;;7714530;22;80806;-59
2022/11/14 14:18:14;;;;;;;12.52;8.82;;;23.50;47.00;;;;;;7712998;22;80597;-60
2022/11/14 14:21:32;;;;;;;13.15;8.85;;;23.50;47.20;;;;;;7705145;22;80763;-60
2022/11/14 14:24:51;;;;;;;16.77;9.05;;;23.50;47.10;;;;;;7714604;22;80546;-62
2022/11/14 14:28:10;;;;;;;13.85;9.75;;;23.50;47.00;;;;;;7709658;22;80918;-59
2022/11/14 14:31:29;;;;;;;13.05;8.77;;;23.50;47.10;;;;;;7680454;22;81896;-58
2022/11/14 14:34:48;;;;;;;13.77;8.90;;;23.50;47.10;;;;;;7714387;22;80853;-58
2022/11/14 14:38:07;;;;;;;13.60;9.43;;;23.50;47.20;;;;;;7706549;22;84777;-60
2022/11/14 14:41:27;;;;;;;13.93;9.18;;;23.50;47.20;;;;;;7709899;22;79946;-60
2022/11/14 14:44:47;;;;;;;12.75;8.88;;;23.50;47.20;;;;;;7711808;22;80425;-60
2022/11/14 14:48:06;;;;;;;12.43;9.00;;;23.50;47.10;;;;;;7710560;22;81238;-60
2022/11/14 14:51:25;;;;;;;12.85;9.07;;;23.50;47.10;;;;;;7710167;22;81642;-58
2022/11/14 14:54:44;;;;;;;13.90;9.20;;;23.40;47.10;;;;;;7711571;22;81425;-60
2022/11/14 14:58:03;;;;;;;15.95;10.10;;;23.40;47.10;;;;;;7711245;22;80295;-60
2022/11/14 15:01:24;;;;;;;13.65;8.80;;;23.40;47.00;;;;;;7694608;22;83017;-59
2022/11/14 15:04:43;;;;;;;11.30;8.63;;;23.40;47.00;;;;;;7700767;22;82518;-60
2022/11/14 15:08:02;;;;;;;12.40;8.70;;;23.40;46.90;;;;;;7708918;22;84302;-59
2022/11/14 15:11:22;;;;;;;13.38;9.70;;;23.40;46.80;;;;;;7708493;22;80643;-59
2022/11/14 15:14:41;;;;;;;12.23;9.63;;;23.40;46.80;;;;;;7707996;22;80456;-59
2022/11/14 15:18:00;;;;;;;13.25;9.52;;;23.40;46.80;;;;;;7712665;22;81781;-60
2022/11/14 15:21:19;;;;;;;13.48;9.88;;;23.40;46.70;;;;;;7706582;22;81715;-63
2022/11/14 15:24:38;;;;;;;12.02;9.02;;;23.40;46.70;;;;;;7708908;22;80667;-61
2022/11/14 15:28:01;;;;;;;16.15;9.80;;;23.40;46.70;;;;;;7704618;22;81808;-61
2022/11/14 15:31:20;;;;;;;14.15;10.15;;;23.40;46.60;;;;;;7705144;22;81032;-60
2022/11/14 15:34:39;;;;;;;17.17;10.63;;;23.40;46.80;;;;;;7687445;22;84432;-59
2022/11/14 15:37:58;;;;;;;14.20;10.27;;;23.40;46.80;;;;;;7699124;22;87279;-60
2022/11/14 15:41:17;;;;;;;15.60;10.80;;;23.40;46.80;;;;;;7702742;22;83541;-61
2022/11/14 15:44:36;;;;;;;13.43;9.80;;;23.40;47.30;;;;;;7714502;22;82622;-62
2022/11/14 15:47:55;;;;;;;12.70;9.98;;;23.40;47.40;;;;;;7708012;22;82604;-60
2022/11/14 15:51:14;;;;;;;12.80;9.57;;;23.40;47.50;;;;;;7699197;22;87495;-60
2022/11/14 15:54:33;;;;;;;15.52;9.95;;;23.50;47.40;;;;;;7703946;22;83154;-59
2022/11/14 15:57:52;;;;;;;14.60;9.85;;;23.50;47.70;;;;;;7716083;22;81349;-61
2022/11/14 16:01:11;;;;;;;15.57;9.77;;;23.50;47.70;;;;;;7712532;22;80134;-60
2022/11/14 16:04:30;;;;;;;14.10;10.32;;;23.50;47.70;;;;;;7713404;22;81324;-59
2022/11/14 16:07:50;;;;;;;13.73;10.60;;;23.50;47.50;;;;;;7705751;22;84613;-60
2022/11/14 16:11:09;;;;;;;12.90;10.05;;;23.50;47.70;;;;;;7705240;22;84977;-60
2022/11/14 16:14:28;;;;;;;14.82;10.25;;;23.50;47.80;;;;;;7708025;22;83084;-60
2022/11/14 16:17:47;;;;;;;19.25;11.05;;;23.50;47.50;;;;;;7709607;22;83210;-60
2022/11/14 16:21:06;;;;;;;14.40;10.48;;;23.50;47.50;;;;;;7710115;22;82928;-60
2022/11/14 16:24:25;;;;;;;16.77;11.85;;;23.50;47.50;;;;;;7709756;22;83053;-60
2022/11/14 16:27:44;;;;;;;14.23;10.68;;;23.50;47.50;;;;;;7712123;22;83279;-60
2022/11/14 16:31:03;;;;;;;14.43;10.40;;;23.50;47.40;;;;;;7712328;22;82583;-60
2022/11/14 16:34:22;;;;;;;16.10;11.00;;;23.50;47.30;;;;;;7714585;22;83209;-58
2022/11/14 16:37:41;;;;;;;18.55;10.98;;;23.50;47.30;;;;;;7707799;22;82941;-58
2022/11/14 16:41:00;;;;;;;16.75;12.02;;;23.50;47.20;;;;;;7706207;22;86926;-58
2022/11/14 16:44:19;;;;;;;17.65;11.25;;;23.50;47.30;;;;;;7707584;22;83754;-58
2022/11/14 16:47:38;;;;;;;17.65;11.07;;;23.50;47.30;;;;;;7705429;22;82884;-57
2022/11/14 16:50:57;;;;;;;17.80;12.00;;;23.50;47.50;;;;;;7706334;22;82965;-57
2022/11/14 16:54:16;;;;;;;17.17;12.25;;;23.50;47.40;;;;;;7705569;22;82951;-58
2022/11/14 16:57:38;;;;;;;15.90;12.00;;;23.50;47.60;;;;;;7706179;22;83226;-58
2022/11/14 17:00:57;;;;;;;16.95;11.50;;;23.50;47.40;;;;;;7705427;22;83943;-59
2022/11/14 17:04:16;;;;;;;18.33;12.55;;;23.50;47.40;;;;;;7707381;22;83209;-55
2022/11/14 17:07:35;;;;;;;14.68;11.30;;;23.50;47.30;;;;;;7708710;22;84326;-57
2022/11/14 17:10:54;;;;;;;16.75;12.43;;;23.50;47.20;;;;;;7706495;22;87299;-57
2022/11/14 17:14:13;;;;;;;19.40;12.20;;;23.50;47.10;;;;;;7707695;22;83020;-66